createdAt,value
2023-02-23T00:01:13.199Z,84.93
2023-02-23T00:03:40.677Z,84.91
2023-02-23T00:06:08.245Z,84.84
2023-02-23T00:08:36.435Z,85.36
2023-02-23T00:11:03.778Z,84.85
2023-02-23T00:13:30.206Z,84.79
2023-02-23T00:15:56.614Z,84.71
2023-02-23T00:18:23.054Z,85.12
2023-02-23T00:20:58.611Z,85.06
2023-02-23T00:23:27.571Z,84.89
2023-02-23T00:25:54.005Z,84.94
2023-02-23T00:28:20.419Z,85.10
2023-02-23T00:30:46.925Z,84.88
2023-02-23T00:33:13.459Z,85.00
2023-02-23T00:35:40.134Z,85.04
2023-02-23T00:38:06.602Z,85.10
2023-02-23T00:40:33.033Z,84.97
2023-02-23T00:42:59.448Z,84.99
2023-02-23T00:45:26.203Z,85.20
2023-02-23T00:47:52.634Z,85.49
2023-02-23T00:50:19.364Z,84.88
2023-02-23T00:52:45.888Z,84.72
2023-02-23T00:55:13.254Z,84.68
2023-02-23T00:57:40.026Z,84.60
2023-02-23T01:00:16.733Z,84.75
2023-02-23T01:02:43.211Z,84.68
2023-02-23T01:05:11.151Z,84.47
2023-02-23T01:07:38.130Z,84.47
2023-02-23T01:10:19.024Z,84.44
2023-02-23T01:12:49.752Z,84.56
2023-02-23T01:15:17.007Z,84.36
2023-02-23T01:17:43.483Z,84.40
2023-02-23T01:20:19.628Z,84.45
2023-02-23T01:22:47.698Z,84.47
2023-02-23T01:25:14.935Z,84.56
2023-02-23T01:27:41.425Z,84.21
2023-02-23T01:30:09.299Z,84.20
2023-02-23T01:32:36.815Z,84.42
2023-02-23T01:35:04.832Z,84.34
2023-02-23T01:37:32.051Z,84.61
2023-02-23T01:39:58.561Z,84.76
2023-02-23T01:42:25.640Z,84.49
2023-02-23T01:44:52.102Z,84.48
2023-02-23T01:47:20.421Z,84.59
2023-02-23T01:49:46.986Z,84.35
2023-02-23T01:52:14.825Z,84.45
2023-02-23T01:54:51.267Z,84.18
2023-02-23T01:57:20.547Z,84.69
2023-02-23T01:59:49.146Z,84.52
2023-02-23T02:02:21.239Z,84.60
2023-02-23T02:04:52.094Z,84.45
2023-02-23T02:07:21.663Z,84.22
2023-02-23T02:10:07.904Z,83.93
2023-02-23T02:12:34.428Z,84.27
2023-02-23T02:15:02.299Z,84.23
2023-02-23T02:17:48.325Z,84.06
2023-02-23T02:20:26.556Z,84.39
2023-02-23T02:23:11.406Z,84.61
2023-02-23T02:25:44.135Z,84.75
2023-02-23T02:28:13.787Z,84.61
2023-02-23T02:30:59.414Z,84.44
2023-02-23T02:33:32.071Z,84.36
2023-02-23T02:36:07.258Z,84.12
2023-02-23T02:38:40.949Z,84.60
2023-02-23T02:41:13.737Z,84.60
2023-02-23T02:43:42.878Z,84.41
2023-02-23T02:46:22.404Z,84.46
2023-02-23T02:49:06.659Z,84.51
2023-02-23T02:51:35.192Z,84.35
2023-02-23T02:54:21.065Z,84.81
2023-02-23T02:56:48.919Z,84.61
2023-02-23T02:59:36.066Z,84.84
2023-02-23T03:02:21.503Z,84.91
2023-02-23T03:05:06.435Z,84.74
2023-02-23T03:08:00.717Z,84.28
2023-02-23T03:11:06.039Z,84.42
2023-02-23T03:13:54.189Z,84.73
2023-02-23T03:16:58.091Z,84.32
2023-02-23T03:19:49.116Z,84.30
2023-02-23T03:22:34.000Z,84.56
2023-02-23T03:25:28.136Z,84.86
2023-02-23T03:28:20.143Z,84.77
2023-02-23T03:31:20.784Z,84.74
2023-02-23T03:34:14.011Z,84.62
2023-02-23T03:37:02.398Z,84.69
2023-02-23T03:39:51.741Z,84.63
2023-02-23T03:42:39.588Z,84.46
2023-02-23T03:45:27.075Z,84.47
2023-02-23T03:48:14.182Z,84.50
2023-02-23T03:51:04.733Z,84.47
2023-02-23T03:53:57.871Z,84.90
2023-02-23T03:56:45.261Z,84.25
2023-02-23T03:59:30.761Z,84.99
2023-02-23T04:02:16.859Z,84.60
2023-02-23T04:05:03.993Z,84.94
2023-02-23T04:07:49.443Z,84.78
2023-02-23T04:10:34.752Z,84.51
2023-02-23T04:13:14.634Z,84.58
2023-02-23T04:15:47.476Z,84.41
2023-02-23T04:18:15.700Z,84.34
2023-02-23T04:20:42.493Z,84.62
2023-02-23T04:23:08.983Z,84.21
2023-02-23T04:25:35.549Z,84.36
2023-02-23T04:28:01.963Z,84.28
2023-02-23T04:30:28.638Z,84.59
2023-02-23T04:32:55.753Z,84.88
2023-02-23T04:35:22.276Z,84.35
2023-02-23T04:37:48.873Z,84.49
2023-02-23T04:40:15.435Z,83.97
2023-02-23T04:42:41.954Z,84.50
2023-02-23T04:45:08.784Z,84.27
2023-02-23T04:47:35.190Z,84.82
2023-02-23T04:50:01.633Z,84.60
2023-02-23T04:52:28.049Z,84.77
2023-02-23T04:54:54.518Z,84.61
2023-02-23T04:57:20.932Z,84.29
2023-02-23T04:59:47.378Z,84.50
2023-02-23T05:02:13.815Z,84.51
2023-02-23T05:04:40.280Z,84.53
2023-02-23T05:07:06.740Z,84.63
2023-02-23T05:09:33.442Z,84.12
2023-02-23T05:11:59.862Z,84.05
2023-02-23T05:14:27.115Z,84.50
2023-02-23T05:16:53.604Z,84.41
2023-02-23T05:19:20.032Z,84.35
2023-02-23T05:21:46.522Z,84.53
2023-02-23T05:24:13.287Z,84.79
2023-02-23T05:26:39.949Z,84.77
2023-02-23T05:29:06.698Z,84.53
2023-02-23T05:31:33.244Z,84.69
2023-02-23T05:33:59.706Z,84.74
2023-02-23T05:36:26.312Z,84.45
2023-02-23T05:38:52.833Z,84.71
2023-02-23T05:41:20.898Z,84.76
2023-02-23T05:43:48.156Z,84.53
2023-02-23T05:46:19.995Z,84.53
2023-02-23T05:48:46.506Z,84.63
2023-02-23T05:51:14.066Z,84.03
2023-02-23T05:53:41.233Z,84.26
2023-02-23T05:56:09.141Z,84.64
2023-02-23T05:58:35.572Z,85.09
2023-02-23T06:01:02.084Z,84.93
2023-02-23T06:03:28.505Z,84.34
2023-02-23T06:05:56.136Z,84.67
2023-02-23T06:08:22.947Z,84.88
2023-02-23T06:10:49.350Z,85.00
2023-02-23T06:13:16.367Z,85.56
2023-02-23T06:15:43.490Z,84.78
2023-02-23T06:18:10.288Z,85.38
2023-02-23T06:20:39.460Z,85.37
2023-02-23T06:23:07.589Z,86.13
2023-02-23T06:25:34.344Z,85.77
2023-02-23T06:28:00.776Z,86.35
2023-02-23T06:30:27.237Z,86.38
2023-02-23T06:32:53.647Z,86.06
2023-02-23T06:35:20.134Z,86.15
2023-02-23T06:37:46.548Z,86.30
2023-02-23T06:40:13.107Z,86.21
2023-02-23T06:42:39.534Z,86.35
2023-02-23T06:45:06.204Z,86.66
2023-02-23T06:47:33.605Z,86.88
2023-02-23T06:50:00.098Z,87.14
2023-02-23T06:52:26.560Z,86.46
2023-02-23T06:54:52.990Z,86.96
2023-02-23T06:57:19.532Z,87.28
2023-02-23T06:59:45.977Z,87.15
2023-02-23T07:02:13.411Z,87.38
2023-02-23T07:04:40.024Z,87.39
2023-02-23T07:07:06.519Z,87.14
2023-02-23T07:09:32.948Z,87.11
2023-02-23T07:11:59.827Z,87.43
2023-02-23T07:14:27.340Z,87.01
2023-02-23T07:16:54.018Z,87.06
2023-02-23T07:19:20.508Z,87.40
2023-02-23T07:21:47.005Z,87.67
2023-02-23T07:24:15.630Z,87.26
2023-02-23T07:26:45.827Z,87.73
2023-02-23T07:29:15.112Z,87.74
2023-02-23T07:31:42.162Z,87.86
2023-02-23T07:34:09.319Z,87.90
2023-02-23T07:36:35.965Z,87.91
2023-02-23T07:39:03.208Z,87.51
2023-02-23T07:41:29.634Z,87.60
2023-02-23T07:43:56.077Z,88.02
2023-02-23T07:46:22.534Z,87.50
2023-02-23T07:48:48.986Z,87.26
2023-02-23T07:51:17.048Z,87.56
2023-02-23T07:53:43.954Z,87.64
2023-02-23T07:56:11.172Z,87.84
2023-02-23T07:58:38.483Z,87.92
2023-02-23T08:01:05.059Z,87.95
2023-02-23T08:03:31.675Z,88.75
2023-02-23T08:05:58.461Z,88.37
2023-02-23T08:08:25.448Z,88.08
2023-02-23T08:10:58.852Z,88.31
2023-02-23T08:13:25.278Z,88.31
2023-02-23T08:15:51.705Z,88.57
2023-02-23T08:18:18.256Z,88.33
2023-02-23T08:20:44.705Z,88.28
2023-02-23T08:23:11.644Z,88.34
2023-02-23T08:25:38.265Z,88.67
2023-02-23T08:28:06.882Z,88.82
2023-02-23T08:30:33.922Z,89.12
2023-02-23T08:33:01.491Z,89.06
2023-02-23T08:35:29.896Z,89.54
2023-02-23T08:37:57.716Z,89.61
2023-02-23T08:40:24.208Z,89.63
2023-02-23T08:42:52.132Z,89.67
2023-02-23T08:45:19.223Z,89.50
2023-02-23T08:47:45.859Z,90.19
2023-02-23T08:50:13.092Z,89.93
2023-02-23T08:52:40.258Z,89.51
2023-02-23T08:55:07.483Z,89.76
2023-02-23T08:57:34.440Z,89.62
2023-02-23T09:00:00.851Z,89.77
2023-02-23T09:02:28.217Z,89.67
2023-02-23T09:04:54.863Z,89.54
2023-02-23T09:07:25.756Z,89.81
2023-02-23T09:09:55.759Z,90.63
2023-02-23T09:12:22.267Z,90.40
2023-02-23T09:14:48.897Z,90.19
2023-02-23T09:17:17.725Z,90.34
2023-02-23T09:19:44.548Z,90.72
2023-02-23T09:22:11.047Z,90.06
2023-02-23T09:24:38.512Z,89.19
2023-02-23T09:27:07.319Z,89.64
2023-02-23T09:29:34.339Z,89.08
2023-02-23T09:32:00.895Z,88.53
2023-02-23T09:34:30.745Z,87.29
2023-02-23T09:36:57.244Z,86.81
2023-02-23T09:39:36.902Z,87.53
2023-02-23T09:42:04.577Z,87.98
2023-02-23T09:44:49.781Z,88.35
2023-02-23T09:47:19.504Z,88.12
2023-02-23T09:49:47.943Z,88.03
2023-02-23T09:52:29.166Z,85.91
2023-02-23T09:54:55.794Z,86.30
2023-02-23T09:57:26.795Z,86.32
2023-02-23T09:59:53.272Z,86.29
2023-02-23T10:02:37.956Z,85.36
2023-02-23T10:05:07.772Z,85.31
2023-02-23T10:07:49.965Z,85.31
2023-02-23T10:10:22.534Z,85.66
2023-02-23T10:13:02.382Z,85.17
2023-02-23T10:15:43.446Z,85.74
2023-02-23T10:18:15.968Z,85.15
2023-02-23T10:21:01.254Z,81.47
2023-02-23T10:23:31.250Z,80.56
2023-02-23T10:26:02.028Z,79.11
2023-02-23T10:28:30.904Z,79.35
2023-02-23T10:30:57.720Z,78.34
2023-02-23T10:33:36.252Z,77.19
2023-02-23T10:36:16.545Z,77.73
2023-02-23T10:38:42.989Z,77.44
2023-02-23T10:41:09.991Z,77.13
2023-02-23T10:43:36.601Z,76.22
2023-02-23T10:46:04.502Z,75.39
2023-02-23T10:48:39.871Z,74.24
2023-02-23T10:51:07.527Z,74.49
2023-02-23T10:53:35.908Z,75.45
2023-02-23T10:56:02.567Z,74.25
2023-02-23T10:58:29.220Z,73.91
2023-02-23T11:01:00.231Z,74.52
2023-02-23T11:03:29.686Z,74.26
2023-02-23T11:05:56.496Z,75.40
2023-02-23T11:08:22.969Z,76.35
2023-02-23T11:11:00.832Z,76.76
2023-02-23T11:13:28.521Z,76.93
2023-02-23T11:16:14.746Z,76.85
2023-02-23T11:18:42.911Z,76.84
2023-02-23T11:21:11.165Z,75.05
2023-02-23T11:23:39.140Z,75.46
2023-02-23T11:26:24.453Z,73.92
2023-02-23T11:28:52.747Z,75.32
2023-02-23T11:31:20.931Z,74.07
2023-02-23T11:33:48.390Z,73.96
2023-02-23T11:36:25.684Z,74.12
2023-02-23T11:39:04.029Z,71.89
2023-02-23T11:41:32.862Z,71.09
2023-02-23T11:43:59.893Z,71.84
2023-02-23T11:46:28.090Z,70.72
2023-02-23T11:49:01.856Z,71.63
2023-02-23T11:51:28.770Z,71.30
2023-02-23T11:53:55.819Z,72.77
2023-02-23T11:56:24.038Z,70.52
2023-02-23T11:58:53.789Z,72.00
2023-02-23T12:01:34.438Z,72.56
2023-02-23T12:04:00.936Z,71.86
2023-02-23T12:06:41.093Z,71.48
2023-02-23T12:09:12.989Z,71.31
2023-02-23T12:11:45.318Z,70.68
2023-02-23T12:14:18.826Z,71.18
2023-02-23T12:16:48.255Z,70.45
2023-02-23T12:19:23.215Z,71.24
2023-02-23T12:21:53.761Z,71.31
2023-02-23T12:24:28.326Z,71.22
2023-02-23T12:27:01.001Z,70.49
2023-02-23T12:29:45.878Z,69.48
2023-02-23T12:32:14.658Z,70.14
2023-02-23T12:34:47.953Z,71.01
2023-02-23T12:37:20.215Z,69.72
2023-02-23T12:39:50.518Z,69.75
2023-02-23T12:42:16.941Z,68.60
2023-02-23T12:44:53.579Z,68.92
2023-02-23T12:47:22.850Z,69.56
2023-02-23T12:50:00.364Z,70.74
2023-02-23T12:52:30.381Z,69.73
2023-02-23T12:54:57.417Z,71.22
2023-02-23T12:57:27.851Z,70.05
2023-02-23T13:00:20.368Z,69.95
2023-02-23T13:02:49.517Z,69.64
2023-02-23T13:05:15.960Z,70.02
2023-02-23T13:08:12.468Z,70.06
2023-02-23T13:10:51.082Z,69.58
2023-02-23T13:13:17.531Z,69.83
2023-02-23T13:15:49.690Z,70.34
2023-02-23T13:18:28.737Z,69.64
2023-02-23T13:20:58.688Z,70.64
2023-02-23T13:23:31.215Z,71.32
2023-02-23T13:26:16.334Z,71.32
2023-02-23T13:28:49.073Z,71.16
2023-02-23T13:31:24.654Z,70.81
2023-02-23T13:33:51.935Z,70.67
2023-02-23T13:36:19.629Z,71.02
2023-02-23T13:38:53.186Z,71.34
2023-02-23T13:41:38.102Z,71.11
2023-02-23T13:44:19.754Z,69.73
2023-02-23T13:46:54.426Z,70.91
2023-02-23T13:49:34.488Z,69.77
2023-02-23T13:52:09.176Z,69.96
2023-02-23T13:54:36.618Z,70.29
2023-02-23T13:57:05.640Z,69.99
2023-02-23T13:59:38.367Z,70.00
2023-02-23T14:02:37.166Z,69.68
2023-02-23T14:05:21.230Z,70.41
2023-02-23T14:07:49.006Z,70.92
2023-02-23T14:10:23.283Z,69.87
2023-02-23T14:13:08.218Z,69.97
2023-02-23T14:15:34.577Z,70.02
2023-02-23T14:18:02.477Z,69.49
2023-02-23T14:20:38.088Z,70.05
2023-02-23T14:23:13.747Z,69.78
2023-02-23T14:25:40.976Z,70.21
2023-02-23T14:28:27.009Z,70.58
2023-02-23T14:31:12.410Z,70.39
2023-02-23T14:33:41.626Z,70.28
2023-02-23T14:36:23.459Z,70.93
2023-02-23T14:38:55.929Z,70.88
2023-02-23T14:41:24.146Z,69.96
2023-02-23T14:44:27.154Z,69.72
2023-02-23T14:46:57.802Z,70.49
2023-02-23T14:49:26.329Z,71.14
2023-02-23T14:51:54.329Z,71.21
2023-02-23T14:54:27.043Z,69.80
2023-02-23T14:56:56.684Z,70.83
2023-02-23T14:59:24.634Z,70.64
2023-02-23T15:01:51.486Z,71.14
2023-02-23T15:04:20.458Z,71.33
2023-02-23T15:06:50.033Z,71.53
2023-02-23T15:09:19.565Z,71.60
2023-02-23T15:11:48.639Z,71.15
2023-02-23T15:14:26.811Z,71.37
2023-02-23T15:16:56.060Z,71.98
2023-02-23T15:19:33.399Z,72.36
2023-02-23T15:22:01.856Z,72.15
2023-02-23T15:24:31.117Z,72.59
2023-02-23T15:26:58.046Z,72.84
2023-02-23T15:29:33.766Z,72.93
2023-02-23T15:32:18.949Z,73.52
2023-02-23T15:34:45.701Z,73.29
2023-02-23T15:37:35.367Z,73.73
2023-02-23T15:40:04.583Z,73.75
2023-02-23T15:42:36.452Z,73.63
2023-02-23T15:45:04.525Z,73.88
2023-02-23T15:47:36.716Z,73.56
2023-02-23T15:50:08.840Z,74.00
2023-02-23T15:52:39.671Z,74.22
2023-02-23T15:55:07.968Z,74.04
2023-02-23T15:57:43.792Z,74.38
2023-02-23T16:00:19.666Z,74.85
2023-02-23T16:02:48.428Z,74.91
2023-02-23T16:05:20.312Z,75.12
2023-02-23T16:07:46.788Z,75.25
2023-02-23T16:10:16.227Z,75.34
2023-02-23T16:12:44.599Z,75.39
2023-02-23T16:15:21.699Z,75.57
2023-02-23T16:17:52.988Z,75.59
2023-02-23T16:20:26.339Z,75.26
2023-02-23T16:22:54.827Z,75.53
2023-02-23T16:25:24.548Z,75.95
2023-02-23T16:27:55.421Z,75.96
2023-02-23T16:30:29.659Z,76.11
2023-02-23T16:33:05.824Z,76.54
2023-02-23T16:35:41.019Z,76.61
2023-02-23T16:38:15.186Z,76.87
2023-02-23T16:40:42.276Z,76.79
2023-02-23T16:43:09.664Z,77.01
2023-02-23T16:45:37.310Z,76.95
2023-02-23T16:48:04.317Z,77.40
2023-02-23T16:50:30.976Z,77.85
2023-02-23T16:52:57.401Z,77.77
2023-02-23T16:55:28.299Z,77.92
2023-02-23T16:57:56.442Z,77.85
2023-02-23T17:00:24.867Z,78.19
2023-02-23T17:02:51.857Z,78.08
2023-02-23T17:05:22.650Z,78.53
2023-02-23T17:07:49.248Z,78.51
2023-02-23T17:10:24.975Z,78.60
2023-02-23T17:12:52.906Z,78.31
2023-02-23T17:15:19.936Z,78.92
2023-02-23T17:17:46.389Z,78.94
2023-02-23T17:20:17.179Z,79.13
2023-02-23T17:22:44.293Z,79.39
2023-02-23T17:25:11.131Z,79.73
2023-02-23T17:27:37.570Z,79.37
2023-02-23T17:30:05.276Z,79.68
2023-02-23T17:32:32.353Z,79.77
2023-02-23T17:34:58.849Z,79.34
2023-02-23T17:37:25.279Z,79.89
2023-02-23T17:39:51.959Z,79.76
2023-02-23T17:42:18.743Z,79.91
2023-02-23T17:44:45.200Z,80.33
2023-02-23T17:47:11.627Z,80.11
2023-02-23T17:49:38.105Z,80.18
2023-02-23T17:52:04.590Z,80.51
2023-02-23T17:54:31.003Z,80.14
2023-02-23T17:56:58.070Z,79.96
2023-02-23T17:59:24.746Z,80.13
2023-02-23T18:01:51.524Z,80.22
2023-02-23T18:04:18.037Z,80.30
2023-02-23T18:06:44.839Z,80.37
2023-02-23T18:09:14.507Z,80.90
2023-02-23T18:11:41.056Z,80.86
2023-02-23T18:14:09.553Z,81.43
2023-02-23T18:16:36.081Z,81.87
2023-02-23T18:19:02.590Z,82.03
2023-02-23T18:21:29.399Z,82.23
2023-02-23T18:23:56.049Z,82.00
2023-02-23T18:26:23.915Z,82.08
2023-02-23T18:28:51.274Z,82.32
2023-02-23T18:31:20.031Z,81.92
2023-02-23T18:33:47.898Z,81.85
2023-02-23T18:36:19.525Z,82.62
2023-02-23T18:38:45.945Z,82.20
2023-02-23T18:41:12.512Z,82.30
2023-02-23T18:43:39.149Z,82.30
2023-02-23T18:46:06.707Z,82.51
2023-02-23T18:48:33.152Z,81.84
2023-02-23T18:50:59.639Z,82.17
2023-02-23T18:53:26.068Z,82.34
2023-02-23T18:55:52.635Z,82.24
2023-02-23T18:58:19.834Z,82.61
2023-02-23T19:00:46.469Z,82.61
2023-02-23T19:03:13.221Z,82.72
2023-02-23T19:05:52.855Z,82.57
2023-02-23T19:08:20.297Z,82.28
2023-02-23T19:10:47.031Z,81.80
2023-02-23T19:13:13.530Z,81.55
2023-02-23T19:15:40.045Z,81.71
2023-02-23T19:18:06.712Z,81.88
2023-02-23T19:20:35.725Z,82.40
2023-02-23T19:23:03.284Z,82.70
2023-02-23T19:25:29.775Z,82.60
2023-02-23T19:27:56.729Z,82.47
2023-02-23T19:30:23.258Z,82.21
2023-02-23T19:32:50.148Z,82.23
2023-02-23T19:35:16.997Z,82.53
2023-02-23T19:37:50.638Z,82.26
2023-02-23T19:40:20.761Z,82.14
2023-02-23T19:42:49.440Z,82.11
2023-02-23T19:45:16.549Z,82.16
2023-02-23T19:47:43.269Z,82.15
2023-02-23T19:50:11.491Z,82.19
2023-02-23T19:52:38.853Z,83.20
2023-02-23T19:55:06.438Z,82.60
2023-02-23T19:57:32.914Z,82.51
2023-02-23T19:59:59.444Z,82.65
2023-02-23T20:02:26.116Z,82.45
2023-02-23T20:04:52.751Z,82.90
2023-02-23T20:07:19.497Z,82.88
2023-02-23T20:09:45.954Z,83.47
2023-02-23T20:12:12.575Z,83.42
2023-02-23T20:14:40.615Z,83.37
2023-02-23T20:17:07.166Z,83.58
2023-02-23T20:22:56.065Z,82.89
2023-02-23T20:25:23.148Z,83.47
2023-02-23T20:27:53.154Z,83.81
2023-02-23T20:30:20.328Z,83.05
2023-02-23T20:32:47.277Z,83.18
2023-02-23T20:35:15.025Z,82.85
2023-02-23T20:37:41.862Z,83.27
2023-02-23T20:40:15.920Z,83.41
2023-02-23T20:42:45.144Z,83.69
2023-02-23T20:45:14.248Z,83.63
2023-02-23T20:47:45.892Z,84.04
2023-02-23T20:50:13.267Z,84.31
2023-02-23T20:52:40.755Z,84.55
2023-02-23T20:55:07.784Z,84.14
2023-02-23T20:57:34.582Z,83.96
2023-02-23T21:00:01.663Z,84.00
2023-02-23T21:02:28.558Z,83.76
2023-02-23T21:04:54.985Z,83.43
2023-02-23T21:07:26.291Z,83.92
2023-02-23T21:09:59.332Z,83.91
2023-02-23T21:12:25.985Z,84.45
2023-02-23T21:14:52.416Z,84.41
2023-02-23T21:17:18.866Z,84.14
2023-02-23T21:19:45.360Z,83.87
2023-02-23T21:22:16.270Z,84.12
2023-02-23T21:24:44.283Z,84.05
2023-02-23T21:27:13.175Z,83.99
2023-02-23T21:29:40.194Z,84.73
2023-02-23T21:32:07.685Z,84.12
2023-02-23T21:34:34.604Z,84.60
2023-02-23T21:37:01.125Z,83.91
2023-02-23T21:39:28.292Z,84.52
2023-02-23T21:41:55.268Z,84.16
2023-02-23T21:44:21.745Z,83.66
2023-02-23T21:46:48.770Z,83.83
2023-02-23T21:49:16.033Z,83.81
2023-02-23T21:51:42.444Z,83.98
2023-02-23T21:54:08.909Z,84.25
2023-02-23T21:56:36.857Z,84.88
2023-02-23T21:59:04.435Z,84.33
2023-02-23T22:01:34.611Z,84.54
2023-02-23T22:04:01.545Z,84.65
2023-02-23T22:06:28.878Z,85.05
2023-02-23T22:08:55.663Z,84.43
2023-02-23T22:11:24.857Z,84.63
2023-02-23T22:13:58.842Z,84.28
2023-02-23T22:16:26.996Z,84.15
2023-02-23T22:18:54.767Z,85.05
2023-02-23T22:21:22.810Z,85.20
2023-02-23T22:23:50.261Z,84.74
2023-02-23T22:26:16.948Z,84.52
2023-02-23T22:28:43.625Z,84.25
2023-02-23T22:31:11.613Z,84.27
2023-02-23T22:33:40.472Z,84.54
2023-02-23T22:36:08.125Z,84.72
2023-02-23T22:38:35.048Z,84.67
2023-02-23T22:41:01.696Z,85.01
2023-02-23T22:43:28.153Z,85.08
2023-02-23T22:45:55.443Z,85.20
2023-02-23T22:48:23.496Z,84.76
2023-02-23T22:50:50.565Z,84.81
2023-02-23T22:53:17.624Z,84.62
2023-02-23T22:55:48.187Z,85.12
2023-02-23T22:58:15.261Z,85.10
2023-02-23T23:00:42.057Z,84.96
2023-02-23T23:03:09.435Z,85.11
2023-02-23T23:05:37.337Z,85.35
2023-02-23T23:08:03.823Z,85.33
2023-02-23T23:10:30.291Z,85.20
2023-02-23T23:12:59.219Z,85.38
2023-02-23T23:15:25.814Z,85.55
2023-02-23T23:17:52.268Z,85.75
2023-02-23T23:20:23.031Z,85.37
2023-02-23T23:22:49.970Z,85.19
2023-02-23T23:25:22.684Z,85.60
2023-02-23T23:27:53.881Z,85.66
2023-02-23T23:30:29.118Z,85.80
2023-02-23T23:32:56.205Z,85.67
2023-02-23T23:35:23.281Z,85.55
2023-02-23T23:37:52.924Z,85.84
2023-02-23T23:40:24.302Z,86.27
2023-02-23T23:42:50.877Z,86.15
2023-02-23T23:45:18.162Z,85.98
2023-02-23T23:47:45.237Z,86.13
2023-02-23T23:50:15.465Z,85.61
2023-02-23T23:52:45.661Z,85.85
2023-02-23T23:55:12.694Z,86.10
2023-02-23T23:57:39.581Z,85.91
